sensor_id;sensor_type;location;lat;lon;timestamp;P1;durP1;ratioP1;P2;durP2;ratioP2
43861;SDS011;29510;52.140;5.034;2023-09-30T00:04:44;13.93;;;6.80;;
43861;SDS011;29510;52.140;5.034;2023-09-30T00:14:44;14.00;;;7.50;;
43861;SDS011;29510;52.140;5.034;2023-09-30T00:24:45;12.60;;;7.30;;
43861;SDS011;29510;52.140;5.034;2023-09-30T00:34:45;14.02;;;7.50;;
43861;SDS011;29510;52.140;5.034;2023-09-30T00:44:46;14.40;;;7.22;;
43861;SDS011;29510;52.140;5.034;2023-09-30T00:54:47;13.50;;;7.88;;
43861;SDS011;29510;52.140;5.034;2023-09-30T01:04:49;15.15;;;8.25;;
43861;SDS011;29510;52.140;5.034;2023-09-30T01:14:50;15.52;;;8.88;;
43861;SDS011;29510;52.140;5.034;2023-09-30T01:24:50;17.00;;;8.77;;
43861;SDS011;29510;52.140;5.034;2023-09-30T01:34:51;14.17;;;8.87;;
43861;SDS011;29510;52.140;5.034;2023-09-30T01:44:51;14.07;;;8.02;;
43861;SDS011;29510;52.140;5.034;2023-09-30T01:54:53;17.92;;;9.82;;
43861;SDS011;29510;52.140;5.034;2023-09-30T02:04:54;18.25;;;11.02;;
43861;SDS011;29510;52.140;5.034;2023-09-30T02:14:54;19.88;;;10.52;;
43861;SDS011;29510;52.140;5.034;2023-09-30T02:24:55;21.90;;;11.30;;
43861;SDS011;29510;52.140;5.034;2023-09-30T02:34:55;19.03;;;11.87;;
43861;SDS011;29510;52.140;5.034;2023-09-30T02:44:56;22.00;;;12.05;;
43861;SDS011;29510;52.140;5.034;2023-09-30T02:54:59;20.38;;;12.63;;
43861;SDS011;29510;52.140;5.034;2023-09-30T03:05:00;22.05;;;12.95;;
43861;SDS011;29510;52.140;5.034;2023-09-30T03:15:02;23.38;;;14.45;;
43861;SDS011;29510;52.140;5.034;2023-09-30T03:25:04;22.33;;;13.57;;
43861;SDS011;29510;52.140;5.034;2023-09-30T03:35:07;21.42;;;13.38;;
43861;SDS011;29510;52.140;5.034;2023-09-30T03:45:15;19.55;;;12.65;;
43861;SDS011;29510;52.140;5.034;2023-09-30T03:55:16;22.33;;;14.70;;
43861;SDS011;29510;52.140;5.034;2023-09-30T04:05:17;24.88;;;14.60;;
43861;SDS011;29510;52.140;5.034;2023-09-30T04:15:19;24.52;;;14.35;;
43861;SDS011;29510;52.140;5.034;2023-09-30T04:25:19;16.77;;;12.38;;
43861;SDS011;29510;52.140;5.034;2023-09-30T04:35:20;26.42;;;15.23;;
43861;SDS011;29510;52.140;5.034;2023-09-30T04:45:21;22.48;;;14.95;;
43861;SDS011;29510;52.140;5.034;2023-09-30T04:55:24;23.63;;;15.68;;
43861;SDS011;29510;52.140;5.034;2023-09-30T05:05:24;24.80;;;15.30;;
43861;SDS011;29510;52.140;5.034;2023-09-30T05:15:25;24.63;;;14.80;;
43861;SDS011;29510;52.140;5.034;2023-09-30T05:25:25;20.05;;;13.82;;
43861;SDS011;29510;52.140;5.034;2023-09-30T05:35:27;22.88;;;14.25;;
43861;SDS011;29510;52.140;5.034;2023-09-30T05:45:30;27.10;;;15.30;;
43861;SDS011;29510;52.140;5.034;2023-09-30T05:55:34;25.27;;;15.98;;
43861;SDS011;29510;52.140;5.034;2023-09-30T06:05:34;25.23;;;16.40;;
43861;SDS011;29510;52.140;5.034;2023-09-30T06:15:40;22.13;;;14.38;;
43861;SDS011;29510;52.140;5.034;2023-09-30T06:25:42;29.58;;;18.02;;
43861;SDS011;29510;52.140;5.034;2023-09-30T06:35:42;29.05;;;17.88;;
43861;SDS011;29510;52.140;5.034;2023-09-30T06:45:50;29.35;;;18.70;;
43861;SDS011;29510;52.140;5.034;2023-09-30T06:55:51;27.35;;;18.20;;
43861;SDS011;29510;52.140;5.034;2023-09-30T07:05:52;26.83;;;16.35;;
43861;SDS011;29510;52.140;5.034;2023-09-30T07:15:54;28.33;;;20.33;;
43861;SDS011;29510;52.140;5.034;2023-09-30T07:25:54;30.80;;;18.40;;
43861;SDS011;29510;52.140;5.034;2023-09-30T07:35:55;28.65;;;18.58;;
43861;SDS011;29510;52.140;5.034;2023-09-30T07:45:55;28.27;;;17.57;;
43861;SDS011;29510;52.140;5.034;2023-09-30T07:55:56;23.13;;;14.95;;
43861;SDS011;29510;52.140;5.034;2023-09-30T08:05:57;25.35;;;15.60;;
43861;SDS011;29510;52.140;5.034;2023-09-30T08:15:59;29.63;;;17.60;;
43861;SDS011;29510;52.140;5.034;2023-09-30T08:26:00;25.77;;;15.25;;
43861;SDS011;29510;52.140;5.034;2023-09-30T08:36:03;20.20;;;12.50;;
43861;SDS011;29510;52.140;5.034;2023-09-30T08:46:07;21.37;;;12.53;;
43861;SDS011;29510;52.140;5.034;2023-09-30T08:56:08;19.13;;;10.77;;
43861;SDS011;29510;52.140;5.034;2023-09-30T09:06:10;17.63;;;10.68;;
43861;SDS011;29510;52.140;5.034;2023-09-30T09:16:10;17.50;;;9.90;;
43861;SDS011;29510;52.140;5.034;2023-09-30T09:26:12;16.23;;;9.48;;
43861;SDS011;29510;52.140;5.034;2023-09-30T09:46:54;15.30;;;8.02;;
43861;SDS011;29510;52.140;5.034;2023-09-30T09:56:57;13.32;;;8.05;;
43861;SDS011;29510;52.140;5.034;2023-09-30T10:07:00;14.10;;;8.57;;
43861;SDS011;29510;52.140;5.034;2023-09-30T10:17:02;14.23;;;8.98;;
43861;SDS011;29510;52.140;5.034;2023-09-30T10:27:27;14.35;;;6.72;;
43861;SDS011;29510;52.140;5.034;2023-09-30T10:37:34;10.32;;;5.13;;
43861;SDS011;29510;52.140;5.034;2023-09-30T10:47:35;11.07;;;4.20;;
43861;SDS011;29510;52.140;5.034;2023-09-30T10:57:36;8.82;;;2.90;;
43861;SDS011;29510;52.140;5.034;2023-09-30T11:07:37;9.55;;;4.10;;
43861;SDS011;29510;52.140;5.034;2023-09-30T11:17:40;7.28;;;3.03;;
43861;SDS011;29510;52.140;5.034;2023-09-30T11:27:40;10.85;;;3.13;;
43861;SDS011;29510;52.140;5.034;2023-09-30T11:37:42;7.43;;;2.40;;
43861;SDS011;29510;52.140;5.034;2023-09-30T11:47:45;6.43;;;2.38;;
43861;SDS011;29510;52.140;5.034;2023-09-30T11:57:45;4.97;;;1.83;;
43861;SDS011;29510;52.140;5.034;2023-09-30T12:07:46;7.03;;;2.08;;
43861;SDS011;29510;52.140;5.034;2023-09-30T12:17:47;7.80;;;2.40;;
43861;SDS011;29510;52.140;5.034;2023-09-30T12:27:48;6.15;;;1.80;;
43861;SDS011;29510;52.140;5.034;2023-09-30T12:37:50;8.32;;;1.80;;
43861;SDS011;29510;52.140;5.034;2023-09-30T12:47:50;8.52;;;2.75;;
43861;SDS011;29510;52.140;5.034;2023-09-30T12:57:52;7.93;;;3.05;;
43861;SDS011;29510;52.140;5.034;2023-09-30T13:07:56;9.98;;;3.15;;
43861;SDS011;29510;52.140;5.034;2023-09-30T13:17:57;9.38;;;2.97;;
43861;SDS011;29510;52.140;5.034;2023-09-30T13:27:59;8.57;;;3.08;;
43861;SDS011;29510;52.140;5.034;2023-09-30T13:37:59;7.70;;;2.87;;
43861;SDS011;29510;52.140;5.034;2023-09-30T13:48:00;8.77;;;3.03;;
43861;SDS011;29510;52.140;5.034;2023-09-30T13:58:01;8.50;;;2.60;;
43861;SDS011;29510;52.140;5.034;2023-09-30T14:08:02;9.15;;;3.42;;
43861;SDS011;29510;52.140;5.034;2023-09-30T14:18:03;11.27;;;3.50;;
43861;SDS011;29510;52.140;5.034;2023-09-30T14:28:04;8.45;;;3.42;;
43861;SDS011;29510;52.140;5.034;2023-09-30T14:38:05;10.05;;;3.20;;
43861;SDS011;29510;52.140;5.034;2023-09-30T14:48:06;11.45;;;3.13;;
43861;SDS011;29510;52.140;5.034;2023-09-30T14:58:07;7.22;;;2.97;;
43861;SDS011;29510;52.140;5.034;2023-09-30T15:08:08;6.78;;;2.55;;
43861;SDS011;29510;52.140;5.034;2023-09-30T15:18:10;9.82;;;3.15;;
43861;SDS011;29510;52.140;5.034;2023-09-30T15:28:11;10.25;;;3.38;;
43861;SDS011;29510;52.140;5.034;2023-09-30T15:38:12;10.70;;;3.83;;
43861;SDS011;29510;52.140;5.034;2023-09-30T15:48:13;10.68;;;3.28;;
43861;SDS011;29510;52.140;5.034;2023-09-30T15:58:14;8.27;;;2.92;;
43861;SDS011;29510;52.140;5.034;2023-09-30T16:08:15;7.07;;;2.55;;
43861;SDS011;29510;52.140;5.034;2023-09-30T16:18:16;11.70;;;3.10;;
43861;SDS011;29510;52.140;5.034;2023-09-30T16:28:16;13.05;;;3.40;;
43861;SDS011;29510;52.140;5.034;2023-09-30T16:38:20;8.30;;;3.17;;
43861;SDS011;29510;52.140;5.034;2023-09-30T16:48:21;10.98;;;3.47;;
43861;SDS011;29510;52.140;5.034;2023-09-30T16:58:22;10.68;;;3.38;;
43861;SDS011;29510;52.140;5.034;2023-09-30T17:08:22;8.63;;;3.50;;
43861;SDS011;29510;52.140;5.034;2023-09-30T17:18:23;9.43;;;3.47;;
43861;SDS011;29510;52.140;5.034;2023-09-30T17:28:23;10.43;;;3.55;;
43861;SDS011;29510;52.140;5.034;2023-09-30T17:38:26;12.23;;;3.80;;
43861;SDS011;29510;52.140;5.034;2023-09-30T17:48:28;11.38;;;4.03;;
43861;SDS011;29510;52.140;5.034;2023-09-30T17:58:28;11.45;;;3.30;;
43861;SDS011;29510;52.140;5.034;2023-09-30T18:08:29;10.95;;;3.85;;
43861;SDS011;29510;52.140;5.034;2023-09-30T18:18:30;11.55;;;3.70;;
43861;SDS011;29510;52.140;5.034;2023-09-30T18:28:33;7.65;;;3.85;;
43861;SDS011;29510;52.140;5.034;2023-09-30T18:38:34;8.60;;;3.70;;
43861;SDS011;29510;52.140;5.034;2023-09-30T18:48:35;12.15;;;4.93;;
43861;SDS011;29510;52.140;5.034;2023-09-30T18:58:36;11.07;;;4.47;;
43861;SDS011;29510;52.140;5.034;2023-09-30T19:08:37;9.25;;;4.32;;
43861;SDS011;29510;52.140;5.034;2023-09-30T19:18:37;8.13;;;4.50;;
43861;SDS011;29510;52.140;5.034;2023-09-30T19:28:38;9.95;;;5.30;;
43861;SDS011;29510;52.140;5.034;2023-09-30T19:38:39;13.18;;;5.72;;
43861;SDS011;29510;52.140;5.034;2023-09-30T19:48:40;16.40;;;7.00;;
43861;SDS011;29510;52.140;5.034;2023-09-30T19:58:40;16.30;;;7.03;;
43861;SDS011;29510;52.140;5.034;2023-09-30T20:08:41;13.00;;;7.32;;
43861;SDS011;29510;52.140;5.034;2023-09-30T20:18:41;15.30;;;7.95;;
43861;SDS011;29510;52.140;5.034;2023-09-30T20:28:42;16.33;;;9.93;;
43861;SDS011;29510;52.140;5.034;2023-09-30T20:38:45;13.80;;;8.43;;
43861;SDS011;29510;52.140;5.034;2023-09-30T20:48:45;13.20;;;7.40;;
43861;SDS011;29510;52.140;5.034;2023-09-30T20:58:47;10.90;;;6.07;;
43861;SDS011;29510;52.140;5.034;2023-09-30T21:08:50;19.60;;;9.70;;
43861;SDS011;29510;52.140;5.034;2023-09-30T21:18:51;23.88;;;11.75;;
43861;SDS011;29510;52.140;5.034;2023-09-30T21:28:52;14.23;;;7.03;;
43861;SDS011;29510;52.140;5.034;2023-09-30T21:38:52;17.73;;;6.63;;
43861;SDS011;29510;52.140;5.034;2023-09-30T21:48:53;13.52;;;5.85;;
43861;SDS011;29510;52.140;5.034;2023-09-30T21:58:55;8.93;;;5.30;;
43861;SDS011;29510;52.140;5.034;2023-09-30T22:08:55;14.88;;;6.30;;
43861;SDS011;29510;52.140;5.034;2023-09-30T22:18:56;14.23;;;6.07;;
43861;SDS011;29510;52.140;5.034;2023-09-30T22:29:00;14.40;;;7.60;;
43861;SDS011;29510;52.140;5.034;2023-09-30T22:39:00;13.90;;;6.40;;
43861;SDS011;29510;52.140;5.034;2023-09-30T22:49:01;14.60;;;7.05;;
43861;SDS011;29510;52.140;5.034;2023-09-30T22:59:04;11.38;;;6.40;;
43861;SDS011;29510;52.140;5.034;2023-09-30T23:09:10;16.23;;;8.98;;
43861;SDS011;29510;52.140;5.034;2023-09-30T23:19:11;17.02;;;7.47;;
43861;SDS011;29510;52.140;5.034;2023-09-30T23:29:11;13.60;;;7.43;;
43861;SDS011;29510;52.140;5.034;2023-09-30T23:39:12;14.63;;;7.82;;
43861;SDS011;29510;52.140;5.034;2023-09-30T23:49:13;12.45;;;6.47;;
43861;SDS011;29510;52.140;5.034;2023-09-30T23:59:15;13.45;;;6.63;;
